sensor_id;sensor_type;location;lat;lon;timestamp;pressure;altitude;pressure_sealevel;temperature;humidity
24962;BME280;12992;50.884;13.668;2023-04-05T00:00:27;97726.13;;;1.28;81.75
24962;BME280;12992;50.884;13.668;2023-04-05T00:02:54;97704.56;;;1.22;81.71
24962;BME280;12992;50.884;13.668;2023-04-05T00:05:19;97716.41;;;1.27;81.89
24962;BME280;12992;50.884;13.668;2023-04-05T00:07:57;97704.03;;;1.26;81.41
24962;BME280;12992;50.884;13.668;2023-04-05T00:10:25;97707.16;;;1.30;82.71
24962;BME280;12992;50.884;13.668;2023-04-05T00:12:51;97695.13;;;1.26;81.85
24962;BME280;12992;50.884;13.668;2023-04-05T00:15:16;97674.72;;;1.10;81.37
24962;BME280;12992;50.884;13.668;2023-04-05T00:17:42;97684.72;;;1.16;80.25
24962;BME280;12992;50.884;13.668;2023-04-05T00:20:09;97651.69;;;1.01;81.40
24962;BME280;12992;50.884;13.668;2023-04-05T00:22:35;97672.78;;;1.04;83.64
24962;BME280;12992;50.884;13.668;2023-04-05T00:25:01;97690.91;;;1.17;83.16
24962;BME280;12992;50.884;13.668;2023-04-05T00:27:27;97704.38;;;1.23;82.07
24962;BME280;12992;50.884;13.668;2023-04-05T00:29:52;97692.66;;;1.24;81.30
24962;BME280;12992;50.884;13.668;2023-04-05T00:32:18;97684.22;;;1.27;81.55
24962;BME280;12992;50.884;13.668;2023-04-05T00:34:43;97697.53;;;1.35;81.59
24962;BME280;12992;50.884;13.668;2023-04-05T00:37:08;97678.22;;;1.25;81.73
24962;BME280;12992;50.884;13.668;2023-04-05T00:39:34;97649.16;;;1.14;80.74
24962;BME280;12992;50.884;13.668;2023-04-05T00:42:02;97668.41;;;1.18;82.51
24962;BME280;12992;50.884;13.668;2023-04-05T00:44:28;97646.59;;;1.06;84.00
24962;BME280;12992;50.884;13.668;2023-04-05T00:46:54;97655.31;;;1.08;83.70
24962;BME280;12992;50.884;13.668;2023-04-05T00:49:19;97675.44;;;1.19;84.13
24962;BME280;12992;50.884;13.668;2023-04-05T00:51:45;97676.28;;;1.19;83.98
24962;BME280;12992;50.884;13.668;2023-04-05T00:54:12;97691.53;;;1.33;83.36
24962;BME280;12992;50.884;13.668;2023-04-05T00:56:38;97666.66;;;1.25;81.70
24962;BME280;12992;50.884;13.668;2023-04-05T00:59:04;97668.13;;;1.27;79.42
24962;BME280;12992;50.884;13.668;2023-04-05T01:01:31;97670.06;;;1.33;78.86
24962;BME280;12992;50.884;13.668;2023-04-05T01:04:00;97670.06;;;1.33;79.32
24962;BME280;12992;50.884;13.668;2023-04-05T01:09:16;97686.88;;;1.42;81.42
24962;BME280;12992;50.884;13.668;2023-04-05T01:11:44;97667.38;;;1.33;80.91
24962;BME280;12992;50.884;13.668;2023-04-05T01:14:10;97654.69;;;1.27;80.19
24962;BME280;12992;50.884;13.668;2023-04-05T01:16:35;97651.81;;;1.29;80.24
24962;BME280;12992;50.884;13.668;2023-04-05T01:19:01;97662.63;;;1.35;80.53
24962;BME280;12992;50.884;13.668;2023-04-05T01:21:50;97668.84;;;1.36;81.87
24962;BME280;12992;50.884;13.668;2023-04-05T01:24:48;97653.97;;;1.33;81.20
24962;BME280;12992;50.884;13.668;2023-04-05T01:27:28;97663.00;;;1.32;84.48
24962;BME280;12992;50.884;13.668;2023-04-05T01:30:03;97653.13;;;1.33;82.24
24962;BME280;12992;50.884;13.668;2023-04-05T01:33:29;97639.03;;;1.31;82.26
24962;BME280;12992;50.884;13.668;2023-04-05T01:36:00;97664.38;;;1.43;81.58
24962;BME280;12992;50.884;13.668;2023-04-05T01:38:27;97655.38;;;1.51;81.27
24962;BME280;12992;50.884;13.668;2023-04-05T01:40:53;97637.47;;;1.36;83.14
24962;BME280;12992;50.884;13.668;2023-04-05T01:43:19;97653.25;;;1.46;83.29
24962;BME280;12992;50.884;13.668;2023-04-05T01:45:45;97639.66;;;1.48;81.31
24962;BME280;12992;50.884;13.668;2023-04-05T01:48:12;97648.31;;;1.50;81.69
24962;BME280;12992;50.884;13.668;2023-04-05T01:50:38;97617.22;;;1.34;81.60
24962;BME280;12992;50.884;13.668;2023-04-05T01:53:03;97636.25;;;1.39;82.38
24962;BME280;12992;50.884;13.668;2023-04-05T01:55:29;97609.72;;;1.29;81.52
24962;BME280;12992;50.884;13.668;2023-04-05T01:57:55;97618.41;;;1.31;82.54
24962;BME280;12992;50.884;13.668;2023-04-05T02:00:23;97620.66;;;1.28;83.64
24962;BME280;12992;50.884;13.668;2023-04-05T02:02:50;97616.03;;;1.22;85.79
24962;BME280;12992;50.884;13.668;2023-04-05T02:05:16;97614.78;;;1.18;84.31
24962;BME280;12992;50.884;13.668;2023-04-05T02:07:41;97630.28;;;1.22;85.20
24962;BME280;12992;50.884;13.668;2023-04-05T02:10:08;97619.19;;;1.25;80.46
24962;BME280;12992;50.884;13.668;2023-04-05T02:12:34;97593.50;;;1.16;79.47
24962;BME280;12992;50.884;13.668;2023-04-05T02:14:59;97594.06;;;1.11;80.85
24962;BME280;12992;50.884;13.668;2023-04-05T02:17:25;97613.56;;;1.20;81.70
24962;BME280;12992;50.884;13.668;2023-04-05T02:19:59;97609.22;;;1.19;81.90
24962;BME280;12992;50.884;13.668;2023-04-05T02:22:35;97599.91;;;1.15;82.60
24962;BME280;12992;50.884;13.668;2023-04-05T02:25:02;97626.84;;;1.28;84.18
24962;BME280;12992;50.884;13.668;2023-04-05T02:27:28;97632.22;;;1.28;83.26
24962;BME280;12992;50.884;13.668;2023-04-05T02:29:54;97631.00;;;1.31;83.66
24962;BME280;12992;50.884;13.668;2023-04-05T02:32:21;97620.84;;;1.26;83.17
24962;BME280;12992;50.884;13.668;2023-04-05T02:34:47;97579.81;;;1.11;80.79
24962;BME280;12992;50.884;13.668;2023-04-05T02:37:12;97573.53;;;1.04;80.71
24962;BME280;12992;50.884;13.668;2023-04-05T02:39:38;97601.16;;;1.19;79.42
24962;BME280;12992;50.884;13.668;2023-04-05T02:42:04;97608.81;;;1.22;82.40
24962;BME280;12992;50.884;13.668;2023-04-05T02:44:29;97602.81;;;1.20;84.10
24962;BME280;12992;50.884;13.668;2023-04-05T02:46:54;97631.59;;;1.26;84.96
24962;BME280;12992;50.884;13.668;2023-04-05T02:49:26;97616.22;;;1.20;86.36
24962;BME280;12992;50.884;13.668;2023-04-05T02:51:52;97625.31;;;1.19;85.10
24962;BME280;12992;50.884;13.668;2023-04-05T02:54:20;97628.25;;;1.24;85.21
24962;BME280;12992;50.884;13.668;2023-04-05T02:56:45;97638.03;;;1.32;87.88
24962;BME280;12992;50.884;13.668;2023-04-05T02:59:13;97636.94;;;1.26;88.70
24962;BME280;12992;50.884;13.668;2023-04-05T03:01:41;97595.91;;;1.11;85.71
24962;BME280;12992;50.884;13.668;2023-04-05T03:04:09;97595.09;;;1.10;84.90
24962;BME280;12992;50.884;13.668;2023-04-05T03:06:37;97610.44;;;1.17;85.16
24962;BME280;12992;50.884;13.668;2023-04-05T03:09:05;97628.44;;;1.23;87.60
24962;BME280;12992;50.884;13.668;2023-04-05T03:11:31;97606.25;;;1.14;87.11
24962;BME280;12992;50.884;13.668;2023-04-05T03:13:58;97610.88;;;1.20;86.01
24962;BME280;12992;50.884;13.668;2023-04-05T03:16:37;97579.94;;;1.03;85.60
24962;BME280;12992;50.884;13.668;2023-04-05T03:19:09;97562.22;;;0.87;85.51
24962;BME280;12992;50.884;13.668;2023-04-05T03:21:38;97582.81;;;0.87;86.27
24962;BME280;12992;50.884;13.668;2023-04-05T03:24:11;97594.47;;;0.94;86.92
24962;BME280;12992;50.884;13.668;2023-04-05T03:26:42;97595.94;;;0.96;86.90
24962;BME280;12992;50.884;13.668;2023-04-05T03:29:08;97608.59;;;1.02;87.83
24962;BME280;12992;50.884;13.668;2023-04-05T03:31:36;97611.38;;;1.09;88.76
24962;BME280;12992;50.884;13.668;2023-04-05T03:34:06;97599.84;;;0.94;90.69
24962;BME280;12992;50.884;13.668;2023-04-05T03:36:39;97603.81;;;0.98;89.48
24962;BME280;12992;50.884;13.668;2023-04-05T03:39:07;97606.03;;;0.94;88.62
24962;BME280;12992;50.884;13.668;2023-04-05T03:41:34;97596.97;;;0.95;85.71
24962;BME280;12992;50.884;13.668;2023-04-05T03:43:59;97579.59;;;0.91;84.48
24962;BME280;12992;50.884;13.668;2023-04-05T03:46:25;97577.75;;;0.92;84.27
24962;BME280;12992;50.884;13.668;2023-04-05T03:48:50;97628.19;;;1.18;85.04
24962;BME280;12992;50.884;13.668;2023-04-05T03:51:15;97647.56;;;1.34;85.62
24962;BME280;12992;50.884;13.668;2023-04-05T03:53:43;97616.44;;;1.19;85.31
24962;BME280;12992;50.884;13.668;2023-04-05T03:56:08;97628.25;;;1.24;86.38
24962;BME280;12992;50.884;13.668;2023-04-05T03:58:41;97620.78;;;1.20;86.75
24962;BME280;12992;50.884;13.668;2023-04-05T04:01:07;97633.25;;;1.27;87.99
24962;BME280;12992;50.884;13.668;2023-04-05T04:03:33;97653.56;;;1.36;88.95
24962;BME280;12992;50.884;13.668;2023-04-05T04:06:04;97638.41;;;1.29;87.47
24962;BME280;12992;50.884;13.668;2023-04-05T04:08:30;97612.53;;;1.21;88.06
24962;BME280;12992;50.884;13.668;2023-04-05T04:10:57;97627.34;;;1.17;90.82
24962;BME280;12992;50.884;13.668;2023-04-05T04:13:26;97627.72;;;1.14;90.76
24962;BME280;12992;50.884;13.668;2023-04-05T04:16:00;97641.41;;;1.19;92.83
24962;BME280;12992;50.884;13.668;2023-04-05T04:18:45;97648.41;;;1.20;92.69
24962;BME280;12992;50.884;13.668;2023-04-05T04:21:29;97643.69;;;1.22;90.74
24962;BME280;12992;50.884;13.668;2023-04-05T04:24:02;97641.84;;;1.23;90.00
24962;BME280;12992;50.884;13.668;2023-04-05T04:26:47;97618.84;;;1.13;87.33
24962;BME280;12992;50.884;13.668;2023-04-05T04:29:20;97598.16;;;1.07;85.70
24962;BME280;12992;50.884;13.668;2023-04-05T04:32:16;97600.38;;;1.04;86.03
24962;BME280;12992;50.884;13.668;2023-04-05T04:35:06;97621.50;;;1.13;87.60
24962;BME280;12992;50.884;13.668;2023-04-05T04:38:02;97604.53;;;1.06;87.14
24962;BME280;12992;50.884;13.668;2023-04-05T04:40:48;97603.31;;;1.09;86.58
24962;BME280;12992;50.884;13.668;2023-04-05T04:43:34;97614.28;;;1.14;85.96
24962;BME280;12992;50.884;13.668;2023-04-05T04:46:33;97578.66;;;0.99;84.44
24962;BME280;12992;50.884;13.668;2023-04-05T04:49:11;97629.84;;;1.19;87.14
24962;BME280;12992;50.884;13.668;2023-04-05T04:51:42;97646.06;;;1.32;88.82
24962;BME280;12992;50.884;13.668;2023-04-05T04:54:07;97640.66;;;1.25;90.54
24962;BME280;12992;50.884;13.668;2023-04-05T04:56:32;97639.00;;;1.24;91.29
24962;BME280;12992;50.884;13.668;2023-04-05T04:58:59;97626.97;;;1.20;89.89
24962;BME280;12992;50.884;13.668;2023-04-05T05:01:24;97646.03;;;1.25;88.95
24962;BME280;12992;50.884;13.668;2023-04-05T05:03:51;97663.28;;;1.37;89.25
24962;BME280;12992;50.884;13.668;2023-04-05T05:06:23;97662.53;;;1.44;90.67
24962;BME280;12992;50.884;13.668;2023-04-05T05:08:49;97660.22;;;1.40;90.27
24962;BME280;12992;50.884;13.668;2023-04-05T05:11:15;97657.53;;;1.40;90.18
24962;BME280;12992;50.884;13.668;2023-04-05T05:13:40;97665.72;;;1.54;87.38
24962;BME280;12992;50.884;13.668;2023-04-05T05:16:08;97670.72;;;1.57;87.31
24962;BME280;12992;50.884;13.668;2023-04-05T05:18:33;97677.75;;;1.58;90.04
24962;BME280;12992;50.884;13.668;2023-04-05T05:20:58;97687.72;;;1.64;93.02
24962;BME280;12992;50.884;13.668;2023-04-05T05:23:24;97686.16;;;1.69;93.39
24962;BME280;12992;50.884;13.668;2023-04-05T05:25:49;97675.31;;;1.63;93.15
24962;BME280;12992;50.884;13.668;2023-04-05T05:28:14;97678.66;;;1.65;92.90
24962;BME280;12992;50.884;13.668;2023-04-05T05:30:40;97702.44;;;1.89;91.86
24962;BME280;12992;50.884;13.668;2023-04-05T05:33:06;97691.72;;;1.89;92.64
24962;BME280;12992;50.884;13.668;2023-04-05T05:35:31;97693.38;;;1.90;93.66
24962;BME280;12992;50.884;13.668;2023-04-05T05:37:56;97714.84;;;2.12;91.78
24962;BME280;12992;50.884;13.668;2023-04-05T05:40:21;97711.53;;;2.31;86.96
24962;BME280;12992;50.884;13.668;2023-04-05T05:42:47;97651.72;;;2.01;85.04
24962;BME280;12992;50.884;13.668;2023-04-05T05:45:12;97690.38;;;2.28;85.13
24962;BME280;12992;50.884;13.668;2023-04-05T05:47:38;97696.44;;;2.30;86.71
24962;BME280;12992;50.884;13.668;2023-04-05T05:50:04;97687.50;;;2.30;85.57
24962;BME280;12992;50.884;13.668;2023-04-05T05:52:29;97702.72;;;2.44;85.52
24962;BME280;12992;50.884;13.668;2023-04-05T05:54:54;97698.28;;;2.58;83.31
24962;BME280;12992;50.884;13.668;2023-04-05T05:57:20;97678.44;;;2.59;78.81
24962;BME280;12992;50.884;13.668;2023-04-05T05:59:45;97664.13;;;2.51;77.83
24962;BME280;12992;50.884;13.668;2023-04-05T06:02:11;97638.34;;;2.36;77.21
24962;BME280;12992;50.884;13.668;2023-04-05T06:04:36;97647.31;;;2.43;77.15
24962;BME280;12992;50.884;13.668;2023-04-05T06:07:02;97636.56;;;2.43;77.11
24962;BME280;12992;50.884;13.668;2023-04-05T06:09:28;97626.84;;;2.42;76.23
24962;BME280;12992;50.884;13.668;2023-04-05T06:11:54;97640.94;;;2.50;75.09
24962;BME280;12992;50.884;13.668;2023-04-05T06:14:20;97633.50;;;2.52;76.19
24962;BME280;12992;50.884;13.668;2023-04-05T06:16:45;97651.97;;;2.62;75.44
24962;BME280;12992;50.884;13.668;2023-04-05T06:19:11;97658.44;;;2.68;75.39
24962;BME280;12992;50.884;13.668;2023-04-05T06:21:36;97652.25;;;2.74;76.59
24962;BME280;12992;50.884;13.668;2023-04-05T06:24:01;97673.22;;;2.85;76.82
24962;BME280;12992;50.884;13.668;2023-04-05T06:26:27;97676.81;;;2.99;75.38
24962;BME280;12992;50.884;13.668;2023-04-05T06:28:54;97694.72;;;3.20;75.40
24962;BME280;12992;50.884;13.668;2023-04-05T06:31:25;97683.78;;;3.28;74.91
24962;BME280;12992;50.884;13.668;2023-04-05T06:33:51;97684.84;;;3.33;74.42
24962;BME280;12992;50.884;13.668;2023-04-05T06:36:16;97675.34;;;3.37;74.56
24962;BME280;12992;50.884;13.668;2023-04-05T06:38:41;97673.47;;;3.38;75.27
24962;BME280;12992;50.884;13.668;2023-04-05T06:41:07;97666.66;;;3.42;72.05
24962;BME280;12992;50.884;13.668;2023-04-05T06:43:32;97677.03;;;3.52;72.74
24962;BME280;12992;50.884;13.668;2023-04-05T06:45:58;97681.19;;;3.61;72.25
24962;BME280;12992;50.884;13.668;2023-04-05T06:48:23;97684.34;;;3.64;72.75
24962;BME280;12992;50.884;13.668;2023-04-05T06:50:59;97684.16;;;3.73;71.19
24962;BME280;12992;50.884;13.668;2023-04-05T06:53:25;97681.03;;;3.76;72.56
24962;BME280;12992;50.884;13.668;2023-04-05T06:55:52;97663.44;;;3.73;72.51
24962;BME280;12992;50.884;13.668;2023-04-05T06:58:18;97674.03;;;3.81;72.30
24962;BME280;12992;50.884;13.668;2023-04-05T07:00:43;97687.94;;;3.91;72.49
24962;BME280;12992;50.884;13.668;2023-04-05T07:03:08;97691.03;;;4.02;71.21
24962;BME280;12992;50.884;13.668;2023-04-05T07:05:34;97687.34;;;4.09;70.41
24962;BME280;12992;50.884;13.668;2023-04-05T07:07:59;97681.50;;;4.12;71.15
24962;BME280;12992;50.884;13.668;2023-04-05T07:10:25;97673.44;;;4.12;69.82
24962;BME280;12992;50.884;13.668;2023-04-05T07:12:51;97688.38;;;4.21;71.03
24962;BME280;12992;50.884;13.668;2023-04-05T07:15:16;97663.47;;;4.06;71.37
24962;BME280;12992;50.884;13.668;2023-04-05T07:17:41;97687.56;;;4.28;70.87
24962;BME280;12992;50.884;13.668;2023-04-05T07:20:07;97668.88;;;4.33;68.23
24962;BME280;12992;50.884;13.668;2023-04-05T07:22:33;97690.03;;;4.49;70.05
24962;BME280;12992;50.884;13.668;2023-04-05T07:24:59;97692.72;;;4.55;69.97
24962;BME280;12992;50.884;13.668;2023-04-05T07:27:25;97686.72;;;4.60;69.82
24962;BME280;12992;50.884;13.668;2023-04-05T07:29:51;97717.81;;;4.82;70.64
24962;BME280;12992;50.884;13.668;2023-04-05T07:32:16;97694.34;;;4.83;70.02
24962;BME280;12992;50.884;13.668;2023-04-05T07:34:41;97663.25;;;4.74;67.86
24962;BME280;12992;50.884;13.668;2023-04-05T07:37:07;97688.53;;;4.93;68.78
24962;BME280;12992;50.884;13.668;2023-04-05T07:39:32;97693.69;;;5.14;66.05
24962;BME280;12992;50.884;13.668;2023-04-05T07:41:58;97727.44;;;5.43;68.43
24962;BME280;12992;50.884;13.668;2023-04-05T07:44:23;97710.16;;;5.51;65.95
24962;BME280;12992;50.884;13.668;2023-04-05T07:46:48;97714.91;;;5.62;67.35
24962;BME280;12992;50.884;13.668;2023-04-05T07:49:14;97655.00;;;5.20;66.81
24962;BME280;12992;50.884;13.668;2023-04-05T07:51:39;97698.72;;;5.55;67.07
24962;BME280;12992;50.884;13.668;2023-04-05T07:54:05;97741.59;;;5.96;66.63
24962;BME280;12992;50.884;13.668;2023-04-05T07:56:30;97702.91;;;5.96;63.88
24962;BME280;12992;50.884;13.668;2023-04-05T07:58:56;97678.59;;;5.89;64.42
24962;BME280;12992;50.884;13.668;2023-04-05T08:01:21;97681.88;;;5.98;64.16
24962;BME280;12992;50.884;13.668;2023-04-05T08:03:54;97656.00;;;5.77;65.77
24962;BME280;12992;50.884;13.668;2023-04-05T08:06:21;97617.53;;;5.44;65.37
24962;BME280;12992;50.884;13.668;2023-04-05T08:08:47;97690.44;;;5.88;64.75
24962;BME280;12992;50.884;13.668;2023-04-05T08:11:13;97742.06;;;6.50;65.58
24962;BME280;12992;50.884;13.668;2023-04-05T08:13:38;97712.38;;;6.68;64.72
24962;BME280;12992;50.884;13.668;2023-04-05T08:16:07;97718.50;;;6.82;63.22
24962;BME280;12992;50.884;13.668;2023-04-05T08:18:33;97703.41;;;6.93;61.11
24962;BME280;12992;50.884;13.668;2023-04-05T08:20:58;97656.22;;;6.64;62.99
24962;BME280;12992;50.884;13.668;2023-04-05T08:23:23;97653.78;;;6.56;62.92
24962;BME280;12992;50.884;13.668;2023-04-05T08:25:49;97612.75;;;6.09;64.16
24962;BME280;12992;50.884;13.668;2023-04-05T08:28:14;97636.69;;;6.12;63.70
24962;BME280;12992;50.884;13.668;2023-04-05T08:30:40;97663.50;;;6.38;63.86
24962;BME280;12992;50.884;13.668;2023-04-05T08:33:06;97656.78;;;6.47;64.79
24962;BME280;12992;50.884;13.668;2023-04-05T08:35:34;97695.03;;;6.76;65.31
24962;BME280;12992;50.884;13.668;2023-04-05T08:38:00;97688.72;;;6.82;63.52
24962;BME280;12992;50.884;13.668;2023-04-05T08:40:34;97689.19;;;6.97;61.41
24962;BME280;12992;50.884;13.668;2023-04-05T08:43:17;97751.84;;;7.81;61.94
24962;BME280;12992;50.884;13.668;2023-04-05T08:45:46;97685.03;;;7.68;58.60
24962;BME280;12992;50.884;13.668;2023-04-05T08:48:13;97613.25;;;6.92;62.06
24962;BME280;12992;50.884;13.668;2023-04-05T08:50:38;97539.69;;;6.40;61.70
24962;BME280;12992;50.884;13.668;2023-04-05T08:53:03;97592.94;;;6.40;61.85
24962;BME280;12992;50.884;13.668;2023-04-05T08:55:29;97611.00;;;6.46;62.75
24962;BME280;12992;50.884;13.668;2023-04-05T08:57:57;97600.28;;;6.33;63.88
24962;BME280;12992;50.884;13.668;2023-04-05T09:00:23;97621.44;;;6.42;62.84
24962;BME280;12992;50.884;13.668;2023-04-05T09:02:53;97651.84;;;6.63;63.80
24962;BME280;12992;50.884;13.668;2023-04-05T09:05:19;97718.56;;;7.19;62.42
24962;BME280;12992;50.884;13.668;2023-04-05T09:07:47;97734.94;;;7.97;60.90
24962;BME280;12992;50.884;13.668;2023-04-05T09:10:13;97698.09;;;8.19;56.00
24962;BME280;12992;50.884;13.668;2023-04-05T09:12:39;97674.28;;;8.21;57.15
24962;BME280;12992;50.884;13.668;2023-04-05T09:15:06;97697.38;;;8.12;59.73
24962;BME280;12992;50.884;13.668;2023-04-05T09:17:32;97686.34;;;8.26;58.90
24962;BME280;12992;50.884;13.668;2023-04-05T09:19:57;97654.44;;;8.09;58.46
24962;BME280;12992;50.884;13.668;2023-04-05T09:22:23;97702.34;;;8.45;58.00
24962;BME280;12992;50.884;13.668;2023-04-05T09:24:48;97780.00;;;9.58;55.43
24962;BME280;12992;50.884;13.668;2023-04-05T09:27:19;97866.09;;;11.42;53.83
24962;BME280;12992;50.884;13.668;2023-04-05T09:29:51;97899.84;;;12.25;53.69
24962;BME280;12992;50.884;13.668;2023-04-05T09:32:17;97913.84;;;14.60;47.97
24962;BME280;12992;50.884;13.668;2023-04-05T09:34:45;97945.97;;;16.29;45.23
24962;BME280;12992;50.884;13.668;2023-04-05T09:37:19;97726.91;;;15.14;44.54
24962;BME280;12992;50.884;13.668;2023-04-05T09:39:46;97602.66;;;13.28;45.95
24962;BME280;12992;50.884;13.668;2023-04-05T09:42:15;97536.53;;;11.56;49.97
24962;BME280;12992;50.884;13.668;2023-04-05T09:47:23;97447.53;;;9.29;53.30
24962;BME280;12992;50.884;13.668;2023-04-05T09:49:52;97389.59;;;7.80;57.83
24962;BME280;12992;50.884;13.668;2023-04-05T09:52:26;97514.78;;;8.00;60.37
24962;BME280;12992;50.884;13.668;2023-04-05T09:54:54;97491.22;;;7.89;58.70
24962;BME280;12992;50.884;13.668;2023-04-05T09:57:22;97452.88;;;7.08;60.11
24962;BME280;12992;50.884;13.668;2023-04-05T09:59:47;97448.13;;;6.74;62.19
24962;BME280;12992;50.884;13.668;2023-04-05T10:02:14;97413.16;;;6.24;62.29
24962;BME280;12992;50.884;13.668;2023-04-05T10:04:41;97422.53;;;6.03;62.64
24962;BME280;12992;50.884;13.668;2023-04-05T10:07:11;97497.38;;;6.28;64.23
24962;BME280;12992;50.884;13.668;2023-04-05T10:09:43;97481.34;;;6.26;64.00
24962;BME280;12992;50.884;13.668;2023-04-05T10:12:12;97495.03;;;6.31;63.49
24962;BME280;12992;50.884;13.668;2023-04-05T10:14:38;97499.69;;;6.24;61.70
24962;BME280;12992;50.884;13.668;2023-04-05T10:17:15;97455.06;;;5.90;63.45
24962;BME280;12992;50.884;13.668;2023-04-05T10:23:15;97478.84;;;5.81;63.40
24962;BME280;12992;50.884;13.668;2023-04-05T10:33:46;97560.84;;;6.43;63.96
24962;BME280;12992;50.884;13.668;2023-04-05T10:36:21;97591.72;;;6.97;62.58
24962;BME280;12992;50.884;13.668;2023-04-05T10:38:59;97638.41;;;7.48;62.46
24962;BME280;12992;50.884;13.668;2023-04-05T10:41:25;97679.50;;;8.23;62.49
24962;BME280;12992;50.884;13.668;2023-04-05T10:43:54;97660.22;;;8.90;58.68
24962;BME280;12992;50.884;13.668;2023-04-05T10:46:21;97662.59;;;9.21;56.04
24962;BME280;12992;50.884;13.668;2023-04-05T10:49:00;97655.78;;;9.47;56.92
24962;BME280;12992;50.884;13.668;2023-04-05T10:51:28;97686.88;;;9.91;55.83
24962;BME280;12992;50.884;13.668;2023-04-05T10:53:55;97639.38;;;9.71;56.81
24962;BME280;12992;50.884;13.668;2023-04-05T10:56:21;97630.91;;;9.67;57.33
24962;BME280;12992;50.884;13.668;2023-04-05T10:58:48;97603.69;;;9.39;55.90
24962;BME280;12992;50.884;13.668;2023-04-05T11:01:16;97579.78;;;9.12;57.59
24962;BME280;12992;50.884;13.668;2023-04-05T11:11:23;97539.59;;;8.62;58.84
24962;BME280;12992;50.884;13.668;2023-04-05T11:13:55;97513.66;;;8.43;57.92
24962;BME280;12992;50.884;13.668;2023-04-05T11:16:22;97643.44;;;9.16;61.28
24962;BME280;12992;50.884;13.668;2023-04-05T11:18:50;97743.91;;;10.72;56.32
24962;BME280;12992;50.884;13.668;2023-04-05T11:21:23;97754.78;;;11.78;54.52
24962;BME280;12992;50.884;13.668;2023-04-05T11:24:06;97683.75;;;11.73;53.69
24962;BME280;12992;50.884;13.668;2023-04-05T11:26:51;97704.41;;;12.07;52.75
24962;BME280;12992;50.884;13.668;2023-04-05T11:29:17;97635.53;;;11.78;52.72
24962;BME280;12992;50.884;13.668;2023-04-05T11:31:58;97640.63;;;11.70;55.48
24962;BME280;12992;50.884;13.668;2023-04-05T11:34:24;97557.56;;;10.34;56.48
24962;BME280;12992;50.884;13.668;2023-04-05T11:36:49;97604.41;;;11.09;55.26
24962;BME280;12992;50.884;13.668;2023-04-05T11:42:02;97785.03;;;12.91;55.56
24962;BME280;12992;50.884;13.668;2023-04-05T11:44:42;97887.13;;;15.28;52.27
24962;BME280;12992;50.884;13.668;2023-04-05T11:47:07;97804.03;;;15.38;49.04
24962;BME280;12992;50.884;13.668;2023-04-05T11:49:34;97760.13;;;15.38;49.50
24962;BME280;12992;50.884;13.668;2023-04-05T11:52:09;97667.69;;;14.62;49.93
24962;BME280;12992;50.884;13.668;2023-04-05T11:54:35;97612.63;;;13.55;49.71
24962;BME280;12992;50.884;13.668;2023-04-05T11:57:00;97530.22;;;12.84;50.01
24962;BME280;12992;50.884;13.668;2023-04-05T11:59:34;97647.50;;;13.80;50.01
24962;BME280;12992;50.884;13.668;2023-04-05T12:02:04;97751.28;;;15.46;46.88
24962;BME280;12992;50.884;13.668;2023-04-05T12:04:31;97724.94;;;15.50;46.97
24962;BME280;12992;50.884;13.668;2023-04-05T12:09:32;97715.84;;;16.84;44.28
24962;BME280;12992;50.884;13.668;2023-04-05T12:11:58;97666.22;;;16.21;44.52
24962;BME280;12992;50.884;13.668;2023-04-05T12:14:23;97540.72;;;14.87;45.59
24962;BME280;12992;50.884;13.668;2023-04-05T12:16:48;97395.97;;;12.65;47.65
24962;BME280;12992;50.884;13.668;2023-04-05T12:19:15;97370.34;;;11.44;50.89
24962;BME280;12992;50.884;13.668;2023-04-05T12:21:40;97364.78;;;10.53;53.87
24962;BME280;12992;50.884;13.668;2023-04-05T12:24:06;97317.53;;;9.60;53.36
24962;BME280;12992;50.884;13.668;2023-04-05T12:26:33;97293.00;;;8.71;55.71
24962;BME280;12992;50.884;13.668;2023-04-05T12:29:02;97298.34;;;8.37;55.54
24962;BME280;12992;50.884;13.668;2023-04-05T12:31:41;97311.97;;;8.02;57.80
24962;BME280;12992;50.884;13.668;2023-04-05T12:34:07;97315.84;;;7.54;60.06
24962;BME280;12992;50.884;13.668;2023-04-05T12:36:33;97332.78;;;7.38;60.93
24962;BME280;12992;50.884;13.668;2023-04-05T12:39:00;97298.44;;;6.73;60.50
24962;BME280;12992;50.884;13.668;2023-04-05T12:41:29;97357.28;;;6.78;62.16
24962;BME280;12992;50.884;13.668;2023-04-05T12:43:55;97311.72;;;6.33;63.14
24962;BME280;12992;50.884;13.668;2023-04-05T12:46:45;97354.78;;;6.16;64.25
24962;BME280;12992;50.884;13.668;2023-04-05T12:49:12;97346.84;;;6.03;65.14
24962;BME280;12992;50.884;13.668;2023-04-05T12:51:45;97357.63;;;5.66;67.84
24962;BME280;12992;50.884;13.668;2023-04-05T12:54:11;97372.81;;;5.43;68.60
24962;BME280;12992;50.884;13.668;2023-04-05T12:56:37;97393.13;;;5.20;69.01
24962;BME280;12992;50.884;13.668;2023-04-05T12:59:04;97409.06;;;5.28;68.78
24962;BME280;12992;50.884;13.668;2023-04-05T13:01:30;97461.66;;;5.51;70.81
24962;BME280;12992;50.884;13.668;2023-04-05T13:03:58;97427.53;;;5.31;69.59
24962;BME280;12992;50.884;13.668;2023-04-05T13:06:25;97481.69;;;5.68;69.02
24962;BME280;12992;50.884;13.668;2023-04-05T13:08:51;97463.19;;;5.65;68.40
24962;BME280;12992;50.884;13.668;2023-04-05T13:11:16;97465.78;;;5.78;67.85
24962;BME280;12992;50.884;13.668;2023-04-05T13:13:42;97487.13;;;5.86;69.93
24962;BME280;12992;50.884;13.668;2023-04-05T13:16:07;97528.53;;;6.30;69.99
24962;BME280;12992;50.884;13.668;2023-04-05T13:18:32;97472.44;;;6.01;69.03
24962;BME280;12992;50.884;13.668;2023-04-05T13:20:58;97467.91;;;6.01;68.63
24962;BME280;12992;50.884;13.668;2023-04-05T13:23:23;97467.97;;;5.88;68.22
24962;BME280;12992;50.884;13.668;2023-04-05T13:25:48;97507.56;;;6.25;69.58
24962;BME280;12992;50.884;13.668;2023-04-05T13:28:14;97531.03;;;6.50;71.42
24962;BME280;12992;50.884;13.668;2023-04-05T13:30:39;97499.84;;;6.47;68.85
24962;BME280;12992;50.884;13.668;2023-04-05T13:33:05;97514.50;;;6.76;66.53
24962;BME280;12992;50.884;13.668;2023-04-05T13:35:30;97449.13;;;6.43;67.63